createdAt,value
2022-12-04T00:00:13.321Z,12.13
2022-12-04T00:02:41.412Z,24.20
2022-12-04T00:05:09.937Z,20.37
2022-12-04T00:07:37.357Z,21.20
2022-12-04T00:10:05.003Z,23.57
2022-12-04T00:12:32.095Z,19.50
2022-12-04T00:17:49.322Z,16.83
2022-12-04T00:20:16.359Z,26.23
2022-12-04T00:22:43.264Z,20.43
2022-12-04T00:25:10.256Z,18.33
2022-12-04T00:27:37.156Z,24.47
2022-12-04T00:30:04.894Z,20.87
2022-12-04T00:32:31.994Z,20.27
2022-12-04T00:34:58.888Z,20.90
2022-12-04T00:37:25.879Z,24.00
2022-12-04T00:39:53.164Z,25.90
2022-12-04T00:42:20.299Z,27.60
2022-12-04T00:44:47.226Z,21.17
2022-12-04T00:47:14.316Z,21.03
2022-12-04T00:49:41.247Z,16.60
2022-12-04T00:52:08.259Z,18.80
2022-12-04T00:54:35.153Z,24.53
2022-12-04T00:57:02.185Z,17.80
2022-12-04T00:59:29.209Z,20.63
2022-12-04T01:01:56.264Z,19.10
2022-12-04T01:04:23.223Z,18.40
2022-12-04T01:06:50.332Z,18.03
2022-12-04T01:09:17.273Z,18.13
2022-12-04T01:11:44.252Z,16.23
2022-12-04T01:14:11.171Z,15.70
2022-12-04T01:16:40.202Z,22.73
2022-12-04T01:19:10.073Z,18.23
2022-12-04T01:21:37.951Z,13.57
2022-12-04T01:24:05.446Z,15.00
2022-12-04T01:26:32.753Z,16.37
2022-12-04T01:28:59.841Z,17.73
2022-12-04T01:31:27.095Z,18.23
2022-12-04T01:33:54.347Z,17.63
2022-12-04T01:36:24.908Z,19.00
2022-12-04T01:38:51.905Z,17.40
2022-12-04T01:41:23.298Z,15.80
2022-12-04T01:44:11.724Z,17.90
2022-12-04T01:46:39.814Z,15.53
2022-12-04T01:49:10.849Z,21.03
2022-12-04T01:51:42.546Z,19.07
2022-12-04T01:54:15.151Z,17.63
2022-12-04T01:56:55.101Z,18.67
2022-12-04T01:59:26.897Z,17.30
2022-12-04T02:02:02.860Z,16.03
2022-12-04T02:04:33.460Z,19.27
2022-12-04T02:07:00.451Z,15.40
2022-12-04T02:09:29.231Z,20.77
2022-12-04T02:12:24.321Z,18.30
2022-12-04T02:15:08.853Z,17.70
2022-12-04T02:18:16.476Z,16.73
2022-12-04T02:21:17.304Z,13.93
2022-12-04T02:23:53.521Z,17.53
2022-12-04T02:26:44.943Z,17.58
2022-12-04T02:29:45.132Z,15.73
2022-12-04T02:32:29.189Z,17.67
2022-12-04T02:34:58.533Z,18.57
2022-12-04T02:37:32.800Z,17.60
2022-12-04T02:40:08.817Z,18.07
2022-12-04T02:42:58.129Z,22.00
2022-12-04T02:45:47.359Z,17.87
2022-12-04T02:48:20.928Z,20.83
2022-12-04T02:50:52.180Z,17.50
2022-12-04T02:53:30.798Z,18.00
2022-12-04T02:56:03.601Z,18.70
2022-12-04T02:58:36.767Z,18.00
2022-12-04T03:01:21.329Z,18.77
2022-12-04T03:03:57.723Z,22.87
2022-12-04T03:06:27.170Z,15.07
2022-12-04T03:09:00.856Z,16.20
2022-12-04T03:11:31.433Z,14.47
2022-12-04T03:14:07.492Z,15.03
2022-12-04T03:16:40.159Z,20.08
2022-12-04T03:19:18.818Z,19.33
2022-12-04T03:21:54.268Z,21.67
2022-12-04T03:24:44.934Z,17.00
2022-12-04T03:27:29.932Z,12.27
2022-12-04T03:30:11.266Z,20.77
2022-12-04T03:32:52.961Z,16.30
2022-12-04T03:35:47.309Z,18.33
2022-12-04T03:38:30.420Z,16.00
2022-12-04T03:41:03.509Z,18.70
2022-12-04T03:43:51.602Z,20.90
2022-12-04T03:46:28.187Z,13.03
2022-12-04T03:51:38.220Z,14.23
2022-12-04T03:54:28.481Z,10.17
2022-12-04T03:57:22.937Z,18.97
2022-12-04T03:59:55.628Z,17.33
2022-12-04T04:02:26.230Z,16.47
2022-12-04T04:04:57.356Z,12.20
2022-12-04T04:07:35.752Z,16.80
2022-12-04T04:10:15.329Z,20.43
2022-12-04T04:13:14.319Z,20.30
2022-12-04T04:16:12.127Z,19.30
2022-12-04T04:24:35.968Z,15.82
2022-12-04T04:27:03.840Z,19.67
2022-12-04T04:29:30.780Z,17.27
2022-12-04T04:32:28.263Z,18.77
2022-12-04T04:35:05.660Z,16.27
2022-12-04T04:37:48.855Z,17.13
2022-12-04T04:40:30.617Z,14.13
2022-12-04T04:43:09.289Z,17.73
2022-12-04T04:45:51.320Z,15.27
2022-12-04T04:48:30.360Z,17.70
2022-12-04T04:51:00.110Z,12.57
2022-12-04T04:53:33.966Z,15.00
2022-12-04T04:56:01.250Z,15.50
2022-12-04T04:58:28.146Z,19.53
2022-12-04T05:01:06.865Z,19.93
2022-12-04T05:03:34.224Z,17.73
2022-12-04T05:06:01.571Z,20.57
2022-12-04T05:08:28.704Z,16.50
2022-12-04T05:10:55.773Z,16.07
2022-12-04T05:13:23.132Z,10.77
2022-12-04T05:16:06.357Z,14.00
2022-12-04T05:18:35.246Z,18.17
2022-12-04T05:21:06.816Z,19.30
2022-12-04T05:23:34.113Z,15.97
2022-12-04T05:26:03.111Z,20.10
2022-12-04T05:28:30.219Z,13.73
2022-12-04T05:30:58.650Z,14.20
2022-12-04T05:33:25.753Z,14.23
2022-12-04T05:36:10.546Z,14.10
2022-12-04T05:38:38.095Z,12.53
2022-12-04T05:41:06.868Z,18.90
2022-12-04T05:43:34.609Z,17.73
2022-12-04T05:46:03.510Z,16.73
2022-12-04T05:48:30.605Z,17.20
2022-12-04T05:50:57.517Z,14.50
2022-12-04T05:53:24.409Z,18.93
2022-12-04T05:55:59.267Z,16.43
2022-12-04T05:58:26.589Z,15.33
2022-12-04T06:00:53.771Z,17.77
2022-12-04T06:03:20.868Z,13.23
2022-12-04T06:05:47.763Z,10.60
2022-12-04T06:08:14.934Z,13.67
2022-12-04T06:10:42.062Z,18.27
2022-12-04T06:13:08.987Z,16.10
2022-12-04T06:15:40.374Z,13.27
2022-12-04T06:18:07.900Z,18.23
2022-12-04T06:20:35.330Z,17.33
2022-12-04T06:23:02.472Z,13.33
2022-12-04T06:25:29.448Z,12.40
2022-12-04T06:27:56.339Z,15.70
2022-12-04T06:30:23.376Z,14.43
2022-12-04T06:32:50.456Z,14.17
2022-12-04T06:35:17.338Z,11.53
2022-12-04T06:37:44.384Z,11.23
2022-12-04T06:40:11.579Z,13.47
2022-12-04T06:42:38.490Z,13.77
2022-12-04T06:45:06.605Z,11.60
2022-12-04T06:47:35.250Z,14.53
2022-12-04T06:50:02.438Z,10.93
2022-12-04T06:52:33.723Z,12.40
2022-12-04T06:55:01.005Z,12.30
2022-12-04T06:57:27.947Z,15.53
2022-12-04T06:59:55.262Z,17.97
2022-12-04T07:02:23.060Z,17.13
2022-12-04T07:04:50.082Z,17.50
2022-12-04T07:07:17.043Z,10.90
2022-12-04T07:09:44.416Z,17.77
2022-12-04T07:12:11.392Z,18.83
2022-12-04T07:14:38.413Z,18.47
2022-12-04T07:17:05.469Z,13.13
2022-12-04T07:19:32.565Z,17.67
2022-12-04T07:21:59.494Z,12.27
2022-12-04T07:24:26.401Z,14.87
2022-12-04T07:26:53.385Z,16.87
2022-12-04T07:29:20.402Z,10.63
2022-12-04T07:31:47.385Z,12.30
2022-12-04T07:34:14.398Z,11.10
2022-12-04T07:36:41.251Z,10.57
2022-12-04T07:39:08.264Z,13.77
2022-12-04T07:41:35.693Z,11.07
2022-12-04T07:44:06.934Z,11.60
2022-12-04T07:46:34.037Z,11.23
2022-12-04T07:49:01.045Z,15.13
2022-12-04T07:51:29.633Z,13.40
2022-12-04T07:54:02.837Z,13.60
2022-12-04T07:56:30.952Z,10.40
2022-12-04T07:58:59.525Z,12.73
2022-12-04T08:01:26.544Z,13.20
2022-12-04T08:03:57.083Z,14.40
2022-12-04T08:06:26.205Z,11.67
2022-12-04T08:08:53.664Z,12.97
2022-12-04T08:11:23.087Z,15.80
2022-12-04T08:13:55.794Z,15.73
2022-12-04T08:16:22.858Z,15.77
2022-12-04T08:18:50.359Z,14.53
2022-12-04T08:21:21.126Z,21.93
2022-12-04T08:23:51.403Z,18.23
2022-12-04T08:26:20.578Z,11.57
2022-12-04T08:28:48.106Z,12.13
2022-12-04T08:31:19.422Z,16.07
2022-12-04T08:33:47.896Z,12.87
2022-12-04T08:36:17.545Z,11.53
2022-12-04T08:38:44.543Z,11.83
2022-12-04T08:41:16.456Z,16.93
2022-12-04T08:43:43.465Z,12.17
2022-12-04T08:46:18.664Z,14.43
2022-12-04T08:48:46.142Z,13.00
2022-12-04T08:51:19.104Z,10.53
2022-12-04T08:53:46.478Z,18.33
2022-12-04T08:56:13.811Z,12.97
2022-12-04T08:58:40.800Z,13.17
2022-12-04T09:01:12.768Z,14.27
2022-12-04T09:03:40.374Z,13.83
2022-12-04T09:06:09.993Z,10.17
2022-12-04T09:08:37.042Z,13.10
2022-12-04T09:11:13.321Z,12.83
2022-12-04T09:13:41.650Z,10.30
2022-12-04T09:16:11.828Z,10.67
2022-12-04T09:18:39.319Z,10.30
2022-12-04T09:21:08.571Z,8.60
2022-12-04T09:23:36.822Z,21.17
2022-12-04T09:26:05.028Z,9.27
2022-12-04T09:28:32.317Z,13.53
2022-12-04T09:31:01.952Z,19.80
2022-12-04T09:33:30.948Z,10.70
2022-12-04T09:36:02.584Z,8.80
2022-12-04T09:38:30.517Z,8.90
2022-12-04T09:41:15.080Z,9.40
2022-12-04T09:44:00.046Z,8.37
2022-12-04T09:46:32.785Z,8.07
2022-12-04T09:49:05.052Z,12.33
2022-12-04T09:51:35.522Z,7.40
2022-12-04T09:54:29.620Z,11.23
2022-12-04T09:57:04.527Z,12.57
2022-12-04T09:59:33.288Z,8.43
2022-12-04T10:02:09.386Z,10.80
2022-12-04T10:04:36.369Z,12.20
2022-12-04T10:07:18.543Z,10.80
2022-12-04T10:09:56.024Z,7.87
2022-12-04T10:12:43.535Z,9.07
2022-12-04T10:15:25.348Z,11.68
2022-12-04T10:18:22.107Z,7.27
2022-12-04T10:21:11.486Z,8.53
2022-12-04T10:23:59.979Z,9.57
2022-12-04T10:26:36.375Z,6.97
2022-12-04T10:29:08.607Z,9.30
2022-12-04T10:31:37.914Z,9.27
2022-12-04T10:34:16.598Z,9.13
2022-12-04T10:36:49.384Z,7.80
2022-12-04T10:39:31.009Z,7.67
2022-12-04T10:42:01.806Z,6.47
2022-12-04T10:44:28.881Z,8.63
2022-12-04T10:47:02.109Z,10.63
2022-12-04T10:49:37.102Z,5.60
2022-12-04T10:52:05.502Z,11.93
2022-12-04T10:54:40.732Z,7.50
2022-12-04T10:57:10.162Z,9.60
2022-12-04T10:59:50.591Z,12.93
2022-12-04T11:02:17.559Z,7.63
2022-12-04T11:04:58.632Z,11.53
2022-12-04T11:07:29.087Z,13.13
2022-12-04T11:10:04.043Z,7.47
2022-12-04T11:12:32.311Z,8.57
2022-12-04T11:15:13.620Z,7.97
2022-12-04T11:17:40.864Z,8.13
2022-12-04T11:20:23.880Z,7.20
2022-12-04T11:23:00.267Z,6.43
2022-12-04T11:25:34.213Z,9.77
2022-12-04T11:28:03.423Z,9.63
2022-12-04T11:30:37.162Z,7.40
2022-12-04T11:33:16.463Z,6.50
2022-12-04T11:35:43.541Z,7.83
2022-12-04T11:38:18.570Z,9.27
2022-12-04T11:40:55.289Z,6.43
2022-12-04T11:43:27.801Z,7.80
2022-12-04T11:45:55.985Z,5.47
2022-12-04T11:48:22.917Z,8.13
2022-12-04T11:50:55.772Z,5.47
2022-12-04T11:53:35.856Z,15.37
2022-12-04T11:56:19.673Z,6.97
2022-12-04T11:59:08.707Z,8.00
2022-12-04T12:01:58.831Z,6.53
2022-12-04T12:05:00.225Z,5.07
2022-12-04T12:07:51.332Z,6.63
2022-12-04T12:10:23.970Z,5.27
2022-12-04T12:13:18.659Z,5.43
2022-12-04T12:16:11.757Z,5.10
2022-12-04T12:18:56.999Z,8.30
2022-12-04T12:21:39.585Z,7.10
2022-12-04T12:24:15.511Z,7.33
2022-12-04T12:27:00.914Z,7.65
2022-12-04T12:29:50.631Z,5.97
2022-12-04T12:32:23.742Z,6.10
2022-12-04T12:34:51.599Z,9.10
2022-12-04T12:37:29.082Z,6.57
2022-12-04T12:40:10.781Z,7.57
2022-12-04T12:42:55.051Z,7.73
2022-12-04T12:45:30.724Z,8.25
2022-12-04T12:48:08.248Z,7.77
2022-12-04T12:51:28.657Z,6.03
2022-12-04T12:53:53.659Z,5.57
2022-12-04T12:56:31.472Z,7.00
2022-12-04T12:59:03.334Z,9.50
2022-12-04T13:01:39.316Z,8.20
2022-12-04T13:04:34.010Z,5.55
2022-12-04T13:07:20.834Z,7.60
2022-12-04T13:09:55.933Z,7.70
2022-12-04T13:12:24.032Z,15.80
2022-12-04T13:14:50.931Z,6.30
2022-12-04T13:17:32.619Z,7.43
2022-12-04T13:20:08.263Z,6.30
2022-12-04T13:22:55.147Z,9.20
2022-12-04T13:25:43.503Z,8.00
2022-12-04T13:28:25.719Z,6.63
2022-12-04T13:31:07.612Z,7.37
2022-12-04T13:33:59.783Z,7.77
2022-12-04T13:36:48.595Z,7.90
2022-12-04T13:39:34.567Z,6.13
2022-12-04T13:42:04.421Z,6.07
2022-12-04T13:44:34.445Z,8.13
2022-12-04T13:47:07.724Z,11.17
2022-12-04T13:49:45.935Z,9.33
2022-12-04T13:52:40.797Z,6.10
2022-12-04T13:55:26.388Z,6.67
2022-12-04T13:57:58.545Z,10.30
2022-12-04T14:00:36.141Z,9.40
2022-12-04T14:03:24.707Z,7.57
2022-12-04T14:05:52.686Z,8.03
2022-12-04T14:08:25.349Z,6.43
2022-12-04T14:11:03.493Z,8.17
2022-12-04T14:13:42.661Z,9.27
2022-12-04T14:16:21.124Z,9.33
2022-12-04T14:18:51.144Z,7.77
2022-12-04T14:21:18.307Z,8.07
2022-12-04T14:23:46.541Z,15.47
2022-12-04T14:29:54.598Z,13.63
2022-12-04T14:32:32.201Z,13.73
2022-12-04T14:34:59.684Z,8.53
2022-12-04T14:37:35.984Z,13.17
2022-12-04T14:40:07.172Z,8.43
2022-12-04T14:42:38.374Z,8.83
2022-12-04T14:45:20.408Z,11.87
2022-12-04T14:48:15.913Z,8.23
2022-12-04T14:50:55.216Z,10.17
2022-12-04T14:53:44.683Z,13.63
2022-12-04T14:56:11.587Z,10.27
2022-12-04T14:58:39.443Z,8.00
2022-12-04T15:01:29.468Z,10.87
2022-12-04T15:04:10.405Z,11.87
2022-12-04T15:06:39.613Z,12.97
2022-12-04T15:09:45.720Z,13.77
2022-12-04T15:12:35.430Z,7.03
2022-12-04T15:15:14.490Z,15.30
2022-12-04T15:17:41.424Z,12.00
2022-12-04T15:20:17.039Z,15.40
2022-12-04T15:22:44.845Z,11.40
2022-12-04T15:25:21.166Z,6.93
2022-12-04T15:27:52.733Z,9.55
2022-12-04T15:30:23.130Z,10.63
2022-12-04T15:32:53.566Z,12.80
2022-12-04T15:35:28.904Z,8.53
2022-12-04T15:37:56.252Z,8.37
2022-12-04T15:40:29.024Z,8.70
2022-12-04T15:43:07.492Z,12.07
2022-12-04T15:45:34.913Z,8.03
2022-12-04T15:48:02.076Z,8.77
2022-12-04T15:50:30.816Z,11.20
2022-12-04T15:53:06.666Z,8.93
2022-12-04T15:55:48.891Z,15.63
2022-12-04T15:58:30.036Z,9.07
2022-12-04T16:01:03.773Z,7.90
2022-12-04T16:03:34.838Z,7.93
2022-12-04T16:06:07.153Z,7.93
2022-12-04T16:08:37.258Z,12.63
2022-12-04T16:11:07.743Z,8.20
2022-12-04T16:13:38.078Z,7.77
2022-12-04T16:16:08.136Z,7.17
2022-12-04T16:18:35.235Z,7.30
2022-12-04T16:21:02.251Z,5.37
2022-12-04T16:23:29.351Z,7.80
2022-12-04T16:25:56.206Z,9.50
2022-12-04T16:28:23.295Z,9.07
2022-12-04T16:30:52.780Z,14.00
2022-12-04T16:33:19.895Z,6.17
2022-12-04T16:35:46.878Z,7.70
2022-12-04T16:38:16.609Z,8.47
2022-12-04T16:40:45.430Z,7.17
2022-12-04T16:43:14.338Z,12.30
2022-12-04T16:45:46.198Z,11.90
2022-12-04T16:48:13.811Z,9.47
2022-12-04T16:50:41.055Z,10.03
2022-12-04T16:53:08.087Z,7.97
2022-12-04T16:55:38.266Z,10.30
2022-12-04T16:58:06.175Z,11.07
2022-12-04T17:00:33.098Z,9.73
2022-12-04T17:03:04.149Z,10.23
2022-12-04T17:05:35.778Z,9.13
2022-12-04T17:08:02.972Z,8.30
2022-12-04T17:10:30.197Z,7.53
2022-12-04T17:12:57.337Z,6.07
2022-12-04T17:15:24.218Z,10.93
2022-12-04T17:17:51.735Z,13.87
2022-12-04T17:20:20.728Z,8.60
2022-12-04T17:22:48.391Z,9.23
2022-12-04T17:25:16.855Z,10.13
2022-12-04T17:27:44.231Z,14.30
2022-12-04T17:30:12.753Z,6.80
2022-12-04T17:32:39.934Z,10.67
2022-12-04T17:35:08.973Z,6.40
2022-12-04T17:37:36.575Z,7.77
2022-12-04T17:40:03.804Z,8.70
2022-12-04T17:42:30.845Z,8.43
2022-12-04T17:44:58.191Z,7.97
2022-12-04T17:47:25.438Z,5.83
2022-12-04T17:49:52.378Z,11.83
2022-12-04T17:52:22.248Z,9.37
2022-12-04T17:54:50.786Z,8.80
2022-12-04T17:57:19.170Z,6.83
2022-12-04T17:59:46.206Z,10.93
2022-12-04T18:02:13.482Z,9.53
2022-12-04T18:04:40.928Z,9.17
2022-12-04T18:07:08.669Z,7.63
2022-12-04T18:09:36.319Z,7.77
2022-12-04T18:12:03.808Z,12.20
2022-12-04T18:14:32.000Z,8.13
2022-12-04T18:16:59.184Z,8.90
2022-12-04T18:19:27.988Z,7.53
2022-12-04T18:21:55.758Z,7.00
2022-12-04T18:24:24.209Z,9.23
2022-12-04T18:26:51.503Z,9.10
2022-12-04T18:29:21.653Z,10.00
2022-12-04T18:31:48.928Z,4.43
2022-12-04T18:34:15.981Z,7.03
2022-12-04T18:36:45.421Z,10.37
2022-12-04T18:39:16.175Z,8.03
2022-12-04T18:41:43.773Z,6.37
2022-12-04T18:44:11.349Z,7.77
2022-12-04T18:46:38.857Z,7.60
2022-12-04T18:49:06.416Z,8.07
2022-12-04T18:51:44.572Z,8.77
2022-12-04T18:54:16.970Z,8.23
2022-12-04T18:56:44.250Z,8.47
2022-12-04T18:59:22.998Z,9.27
2022-12-04T19:01:50.736Z,11.40
2022-12-04T19:04:19.650Z,8.07
2022-12-04T19:06:51.706Z,12.17
2022-12-04T19:09:40.740Z,8.80
2022-12-04T19:12:11.977Z,11.43
2022-12-04T19:14:39.873Z,7.93
2022-12-04T19:17:06.955Z,12.40
2022-12-04T19:19:33.882Z,8.60
2022-12-04T19:22:01.302Z,11.53
2022-12-04T19:24:28.232Z,8.53
2022-12-04T19:26:55.161Z,10.70
2022-12-04T19:29:22.094Z,9.77
2022-12-04T19:31:49.135Z,16.90
2022-12-04T19:34:16.150Z,12.60
2022-12-04T19:36:45.454Z,10.73
2022-12-04T19:39:12.746Z,10.13
2022-12-04T19:41:41.630Z,10.27
2022-12-04T19:44:40.228Z,12.43
2022-12-04T19:46:56.728Z,9.53
2022-12-04T19:49:23.752Z,10.03
2022-12-04T19:51:50.893Z,5.80
2022-12-04T19:54:18.657Z,12.40
2022-12-04T19:56:51.102Z,11.50
2022-12-04T19:59:20.253Z,10.10
2022-12-04T20:01:47.557Z,11.43
2022-12-04T20:04:14.624Z,7.70
2022-12-04T20:06:45.508Z,9.87
2022-12-04T20:09:15.230Z,22.13
2022-12-04T20:11:42.658Z,7.67
2022-12-04T20:14:10.653Z,10.27
2022-12-04T20:16:38.753Z,10.90
2022-12-04T20:19:07.836Z,10.37
2022-12-04T20:21:35.177Z,7.20
2022-12-04T20:24:05.203Z,4.77
2022-12-04T20:26:35.915Z,9.57
2022-12-04T20:29:03.093Z,16.90
2022-12-04T20:31:38.682Z,10.17
2022-12-04T20:34:08.267Z,7.33
2022-12-04T20:36:42.910Z,11.53
2022-12-04T20:39:11.482Z,9.37
2022-12-04T20:41:39.097Z,8.27
2022-12-04T20:44:08.704Z,9.60
2022-12-04T20:46:38.481Z,6.90
2022-12-04T20:49:09.072Z,12.83
2022-12-04T20:51:39.230Z,14.43
2022-12-04T20:54:09.160Z,15.10
2022-12-04T20:56:37.725Z,12.57
2022-12-04T20:59:11.627Z,12.50
2022-12-04T21:01:39.384Z,8.33
2022-12-04T21:04:06.731Z,8.00
2022-12-04T21:06:36.778Z,11.33
2022-12-04T21:09:06.126Z,10.47
2022-12-04T21:11:39.112Z,13.13
2022-12-04T21:14:31.679Z,13.60
2022-12-04T21:16:59.095Z,13.13
2022-12-04T21:19:26.426Z,13.10
2022-12-04T21:21:54.304Z,5.53
2022-12-04T21:24:23.690Z,11.47
2022-12-04T21:26:50.565Z,9.43
2022-12-04T21:29:17.490Z,12.23
2022-12-04T21:31:45.048Z,10.37
2022-12-04T21:34:14.106Z,18.47
2022-12-04T21:36:41.525Z,19.77
2022-12-04T21:39:09.381Z,13.77
2022-12-04T21:41:54.803Z,15.93
2022-12-04T21:44:21.988Z,12.83
2022-12-04T21:46:49.811Z,12.10
2022-12-04T21:49:18.545Z,12.67
2022-12-04T21:51:57.464Z,8.40
2022-12-04T21:54:26.787Z,14.80
2022-12-04T21:56:54.504Z,9.23
2022-12-04T21:59:21.786Z,13.83
2022-12-04T22:01:48.816Z,13.60
2022-12-04T22:04:16.030Z,8.77
2022-12-04T22:06:43.654Z,7.73
2022-12-04T22:09:12.612Z,14.53
2022-12-04T22:11:41.632Z,10.97
2022-12-04T22:14:09.587Z,16.70
2022-12-04T22:16:41.646Z,26.83
2022-12-04T22:19:09.866Z,16.77
2022-12-04T22:21:36.791Z,15.27
2022-12-04T22:24:23.757Z,9.80
2022-12-04T22:26:50.670Z,16.83
2022-12-04T22:29:48.678Z,6.57
2022-12-04T22:32:04.548Z,10.20
2022-12-04T22:34:31.604Z,9.63
2022-12-04T22:36:58.559Z,16.67
2022-12-04T22:39:25.576Z,12.27
2022-12-04T22:41:52.545Z,16.07
2022-12-04T22:44:19.711Z,13.40
2022-12-04T22:46:47.068Z,12.10
2022-12-04T22:49:14.012Z,12.50
2022-12-04T22:51:40.948Z,17.87
2022-12-04T22:54:13.134Z,15.90
2022-12-04T22:56:40.166Z,12.47
2022-12-04T22:59:07.062Z,9.40
2022-12-04T23:01:34.667Z,10.10
2022-12-04T23:04:02.971Z,11.47
2022-12-04T23:06:31.491Z,16.00
2022-12-04T23:09:01.946Z,15.93
2022-12-04T23:11:29.753Z,14.93
2022-12-04T23:14:00.386Z,8.63
2022-12-04T23:16:29.604Z,11.73
2022-12-04T23:18:57.506Z,10.73
2022-12-04T23:21:25.851Z,16.73
2022-12-04T23:23:53.943Z,10.27
2022-12-04T23:26:41.989Z,12.97
2022-12-04T23:29:29.593Z,11.30
2022-12-04T23:31:56.163Z,10.98
2022-12-04T23:34:23.219Z,13.87
2022-12-04T23:36:50.023Z,13.40
2022-12-04T23:39:16.998Z,8.53
2022-12-04T23:41:43.868Z,15.03
2022-12-04T23:44:10.911Z,17.10
2022-12-04T23:46:37.849Z,10.90
2022-12-04T23:49:05.077Z,11.60
2022-12-04T23:51:31.932Z,15.73
2022-12-04T23:53:59.415Z,14.13
2022-12-04T23:56:27.786Z,10.93
2022-12-04T23:58:57.016Z,10.50
